createdAt,value
2018-11-25T00:00:33.633Z,74.10
2018-11-25T00:03:02.046Z,74.20
2018-11-25T00:05:30.460Z,74.40
2018-11-25T00:07:59.169Z,74.90
2018-11-25T00:10:27.533Z,75.10
2018-11-25T00:12:56.204Z,75.00
2018-11-25T00:15:25.045Z,75.10
2018-11-25T00:17:53.511Z,75.50
2018-11-25T00:20:21.864Z,75.80
2018-11-25T00:22:50.604Z,76.30
2018-11-25T00:25:18.937Z,76.60
2018-11-25T00:27:47.409Z,76.60
2018-11-25T00:30:18.125Z,76.60
2018-11-25T00:32:46.531Z,76.70
2018-11-25T00:35:16.513Z,77.00
2018-11-25T00:40:24.533Z,78.00
2018-11-25T00:42:52.915Z,78.20
2018-11-25T00:45:21.894Z,78.80
2018-11-25T00:47:51.008Z,79.20
2018-11-25T00:50:19.467Z,79.60
2018-11-25T00:52:48.359Z,79.60
2018-11-25T00:55:17.565Z,80.10
2018-11-25T00:57:46.105Z,80.90
2018-11-25T01:00:18.926Z,81.40
2018-11-25T01:02:48.696Z,81.60
2018-11-25T01:05:17.843Z,82.00
2018-11-25T01:07:46.233Z,82.30
2018-11-25T01:10:15.880Z,82.80
2018-11-25T01:12:44.650Z,83.10
2018-11-25T01:15:14.203Z,83.50
2018-11-25T01:17:42.657Z,83.70
2018-11-25T01:20:18.143Z,83.70
2018-11-25T01:22:46.809Z,83.70
2018-11-25T01:25:15.137Z,83.60
2018-11-25T01:27:43.399Z,83.30
2018-11-25T01:30:15.535Z,83.30
2018-11-25T01:32:43.870Z,83.20
2018-11-25T01:35:16.911Z,83.40
2018-11-25T01:37:45.581Z,84.10
2018-11-25T01:40:16.406Z,84.70
2018-11-25T01:42:45.080Z,85.30
2018-11-25T01:45:15.571Z,85.50
2018-11-25T01:47:44.071Z,85.90
2018-11-25T01:50:15.387Z,86.40
2018-11-25T01:52:43.749Z,86.50
2018-11-25T01:55:14.762Z,87.10
2018-11-25T01:57:43.083Z,87.50
2018-11-25T02:00:15.900Z,87.40
2018-11-25T02:02:44.201Z,87.40
2018-11-25T02:05:13.625Z,87.20
2018-11-25T02:07:41.929Z,87.60
2018-11-25T02:10:14.335Z,87.90
2018-11-25T02:12:42.757Z,88.00
2018-11-25T02:15:13.484Z,88.50
2018-11-25T02:17:41.872Z,88.30
2018-11-25T02:20:29.186Z,88.30
2018-11-25T02:22:57.578Z,88.50
2018-11-25T02:25:25.795Z,88.80
2018-11-25T02:27:54.154Z,88.80
2018-11-25T02:30:22.632Z,89.20
2018-11-25T02:35:36.158Z,89.00
2018-11-25T02:38:05.138Z,88.90
2018-11-25T02:40:33.348Z,89.10
2018-11-25T02:43:01.706Z,89.00
2018-11-25T02:45:30.351Z,88.80
2018-11-25T02:47:58.644Z,88.70
2018-11-25T02:50:28.243Z,88.70
2018-11-25T02:52:58.830Z,88.80
2018-11-25T02:55:27.677Z,88.70
2018-11-25T02:57:55.936Z,89.40
2018-11-25T03:00:24.342Z,89.00
2018-11-25T03:02:52.608Z,88.90
2018-11-25T03:05:21.022Z,88.30
2018-11-25T03:07:49.288Z,88.50
2018-11-25T03:10:17.613Z,88.40
2018-11-25T03:12:46.002Z,89.00
2018-11-25T03:15:17.274Z,89.10
2018-11-25T03:17:45.637Z,89.70
2018-11-25T03:20:15.801Z,89.70
2018-11-25T03:22:44.252Z,89.90
2018-11-25T03:25:16.215Z,90.10
2018-11-25T03:27:44.577Z,90.20
2018-11-25T03:30:14.757Z,90.10
2018-11-25T03:32:43.867Z,90.40
2018-11-25T03:35:13.164Z,90.50
2018-11-25T03:37:41.519Z,90.30
2018-11-25T03:40:14.394Z,90.50
2018-11-25T03:42:42.865Z,90.50
2018-11-25T03:45:19.665Z,90.50
2018-11-25T03:47:48.034Z,90.50
2018-11-25T03:50:16.743Z,90.50
2018-11-25T03:52:45.205Z,90.50
2018-11-25T03:55:15.425Z,90.40
2018-11-25T03:57:43.787Z,90.20
2018-11-25T04:00:15.410Z,90.20
2018-11-25T04:02:43.775Z,90.30
2018-11-25T04:05:13.719Z,90.30
2018-11-25T04:07:41.998Z,90.20
2018-11-25T04:10:16.515Z,90.00
2018-11-25T04:12:44.951Z,90.30
2018-11-25T04:15:15.382Z,90.60
2018-11-25T04:17:43.745Z,90.70
2018-11-25T04:20:17.607Z,90.60
2018-11-25T04:22:46.034Z,90.40
2018-11-25T04:25:14.347Z,90.30
2018-11-25T04:27:42.546Z,90.10
2018-11-25T04:32:55.191Z,89.30
2018-11-25T04:35:23.443Z,89.40
2018-11-25T04:37:51.731Z,89.00
2018-11-25T04:40:20.042Z,88.80
2018-11-25T04:42:48.338Z,88.70
2018-11-25T04:45:17.313Z,88.80
2018-11-25T04:47:46.360Z,89.20
2018-11-25T04:50:19.380Z,88.90
2018-11-25T04:52:47.814Z,89.20
2018-11-25T04:55:16.134Z,89.20
2018-11-25T04:57:50.059Z,89.00
2018-11-25T05:00:19.259Z,88.90
2018-11-25T05:02:48.027Z,88.70
2018-11-25T05:05:16.609Z,88.70
2018-11-25T05:07:45.603Z,88.50
2018-11-25T05:10:15.865Z,88.60
2018-11-25T05:12:44.202Z,88.50
2018-11-25T05:15:17.611Z,88.80
2018-11-25T05:17:46.183Z,88.70
2018-11-25T05:20:15.633Z,88.50
2018-11-25T05:22:44.059Z,88.70
2018-11-25T05:25:17.716Z,89.20
2018-11-25T05:27:46.042Z,89.20
2018-11-25T05:30:19.610Z,89.50
2018-11-25T05:32:48.084Z,89.40
2018-11-25T05:35:17.946Z,89.20
2018-11-25T05:37:46.383Z,89.10
2018-11-25T05:40:16.016Z,88.80
2018-11-25T05:42:44.464Z,88.50
2018-11-25T05:45:15.748Z,88.60
2018-11-25T05:47:44.134Z,88.40
2018-11-25T05:50:15.265Z,88.50
2018-11-25T05:52:46.733Z,88.70
2018-11-25T05:55:15.220Z,88.40
2018-11-25T05:57:43.757Z,88.40
2018-11-25T06:00:16.540Z,88.20
2018-11-25T06:02:44.851Z,88.30
2018-11-25T06:05:13.294Z,87.90
2018-11-25T06:07:41.547Z,87.80
2018-11-25T06:10:12.921Z,87.70
2018-11-25T06:12:41.352Z,87.80
2018-11-25T06:15:11.364Z,88.00
2018-11-25T06:17:39.712Z,87.90
2018-11-25T06:20:17.027Z,87.80
2018-11-25T06:22:45.867Z,88.00
2018-11-25T06:25:20.094Z,87.90
2018-11-25T06:27:48.524Z,87.80
2018-11-25T06:30:19.649Z,88.20
2018-11-25T06:32:48.075Z,88.50
2018-11-25T06:35:17.716Z,88.30
2018-11-25T06:37:46.130Z,89.10
2018-11-25T06:40:17.052Z,88.50
2018-11-25T06:42:45.366Z,88.70
2018-11-25T06:45:18.651Z,88.70
2018-11-25T06:47:46.946Z,88.90
2018-11-25T06:50:15.481Z,88.90
2018-11-25T06:52:43.824Z,88.90
2018-11-25T06:55:12.820Z,88.70
2018-11-25T06:57:41.196Z,88.60
2018-11-25T07:00:18.061Z,88.30
2018-11-25T07:02:46.629Z,88.50
2018-11-25T07:05:15.082Z,88.10
2018-11-25T07:07:43.551Z,88.20
2018-11-25T07:10:15.405Z,88.10
2018-11-25T07:12:43.985Z,87.60
2018-11-25T07:15:13.937Z,87.60
2018-11-25T07:17:42.542Z,87.50
2018-11-25T07:20:12.757Z,87.70
2018-11-25T07:22:41.136Z,88.00
2018-11-25T07:25:13.616Z,87.40
2018-11-25T07:27:41.999Z,87.40
2018-11-25T07:30:31.877Z,87.00
2018-11-25T07:33:00.497Z,86.50
2018-11-25T07:35:28.938Z,86.10
2018-11-25T07:37:57.414Z,85.60
2018-11-25T07:40:26.169Z,85.70
2018-11-25T07:42:54.486Z,85.80
2018-11-25T07:45:30.216Z,85.90
2018-11-25T07:47:52.844Z,86.10
2018-11-25T07:50:21.361Z,86.20
2018-11-25T07:52:50.841Z,86.30
2018-11-25T07:55:24.203Z,86.60
2018-11-25T07:57:54.085Z,86.70
2018-11-25T08:00:24.152Z,86.70
2018-11-25T08:02:52.910Z,86.90
2018-11-25T08:05:23.196Z,87.10
2018-11-25T08:07:52.241Z,87.10
2018-11-25T08:10:20.884Z,87.20
2018-11-25T08:12:50.775Z,87.30
2018-11-25T08:15:20.063Z,87.50
2018-11-25T08:17:49.117Z,87.60
2018-11-25T08:20:20.231Z,87.60
2018-11-25T08:22:50.669Z,87.50
2018-11-25T08:25:20.669Z,87.90
2018-11-25T08:27:49.913Z,88.00
2018-11-25T08:30:23.241Z,88.00
2018-11-25T08:32:52.728Z,87.90
2018-11-25T08:35:27.717Z,88.00
2018-11-25T08:37:57.588Z,88.00
2018-11-25T08:40:26.109Z,88.50
2018-11-25T08:42:54.647Z,88.80
2018-11-25T08:45:23.420Z,88.90
2018-11-25T08:47:53.791Z,89.30
2018-11-25T08:50:22.587Z,89.10
2018-11-25T08:52:52.898Z,89.40
2018-11-25T08:55:25.283Z,89.20
2018-11-25T08:57:55.088Z,88.90
2018-11-25T09:00:25.208Z,88.40
2018-11-25T09:02:56.542Z,88.00
2018-11-25T09:05:25.639Z,88.00
2018-11-25T09:07:54.646Z,87.60
2018-11-25T09:10:23.434Z,87.20
2018-11-25T09:12:56.344Z,87.00
2018-11-25T09:15:27.672Z,86.80
2018-11-25T09:17:56.297Z,87.10
2018-11-25T09:20:25.052Z,87.20
2018-11-25T09:22:54.456Z,87.30
2018-11-25T09:25:26.795Z,87.00
2018-11-25T09:27:56.129Z,87.10
2018-11-25T09:30:29.059Z,86.70
2018-11-25T09:32:58.203Z,86.40
2018-11-25T09:35:26.728Z,84.50
2018-11-25T09:37:55.845Z,82.50
2018-11-25T09:40:26.290Z,80.50
2018-11-25T09:42:55.547Z,79.20
2018-11-25T09:45:25.689Z,78.00
2018-11-25T09:47:59.496Z,77.40
2018-11-25T09:50:28.842Z,77.10
2018-11-25T09:55:37.596Z,76.40
2018-11-25T09:58:06.404Z,77.10
2018-11-25T10:00:37.053Z,77.30
2018-11-25T10:03:07.321Z,76.90
2018-11-25T10:05:36.351Z,76.80
2018-11-25T10:08:06.094Z,76.90
2018-11-25T10:10:35.110Z,76.60
2018-11-25T10:13:04.394Z,76.70
2018-11-25T10:15:33.294Z,76.80
2018-11-25T10:18:02.739Z,77.30
2018-11-25T10:20:32.437Z,77.70
2018-11-25T10:23:02.682Z,77.50
2018-11-25T10:25:31.414Z,77.20
2018-11-25T10:28:00.550Z,77.40
2018-11-25T10:30:30.681Z,75.90
2018-11-25T10:33:01.747Z,75.30
2018-11-25T10:35:33.561Z,74.90
2018-11-25T10:38:03.535Z,74.40
2018-11-25T10:40:32.460Z,74.20
2018-11-25T10:43:01.513Z,73.80
2018-11-25T10:45:30.658Z,73.20
2018-11-25T10:48:00.151Z,73.30
2018-11-25T10:50:29.244Z,73.70
2018-11-25T10:52:58.312Z,72.80
2018-11-25T10:55:28.159Z,72.00
2018-11-25T10:57:58.337Z,71.20
2018-11-25T11:00:37.194Z,70.90
2018-11-25T11:03:14.220Z,71.00
2018-11-25T11:05:50.417Z,70.30
2018-11-25T11:08:19.029Z,69.10
2018-11-25T11:10:48.013Z,68.50
2018-11-25T11:13:16.568Z,68.00
2018-11-25T11:15:45.911Z,68.50
2018-11-25T11:18:14.511Z,67.80
2018-11-25T11:20:43.388Z,67.40
2018-11-25T11:23:30.169Z,67.10
2018-11-25T11:26:07.066Z,66.80
2018-11-25T11:28:31.771Z,66.90
2018-11-25T11:31:00.119Z,66.50
2018-11-25T11:33:28.512Z,66.60
2018-11-25T11:35:56.991Z,65.90
2018-11-25T11:38:25.880Z,65.70
2018-11-25T11:40:54.472Z,65.60
2018-11-25T11:43:23.824Z,65.50
2018-11-25T11:45:53.230Z,65.00
2018-11-25T11:48:22.001Z,64.80
2018-11-25T11:50:50.423Z,64.90
2018-11-25T11:53:19.250Z,64.30
2018-11-25T11:55:47.793Z,64.60
2018-11-25T11:58:16.361Z,64.60
2018-11-25T12:00:44.891Z,64.30
2018-11-25T12:03:13.564Z,64.60
2018-11-25T12:05:42.042Z,65.00
2018-11-25T12:08:10.607Z,65.20
2018-11-25T12:10:39.082Z,65.40
2018-11-25T12:13:07.560Z,64.90
2018-11-25T12:15:36.140Z,65.00
2018-11-25T12:18:05.538Z,64.00
2018-11-25T12:20:33.950Z,63.60
2018-11-25T12:23:02.288Z,63.90
2018-11-25T12:25:31.637Z,63.50
2018-11-25T12:28:00.398Z,63.50
2018-11-25T12:30:28.862Z,63.20
2018-11-25T12:32:57.526Z,63.30
2018-11-25T12:35:26.161Z,63.30
2018-11-25T12:37:54.472Z,63.40
2018-11-25T12:40:23.317Z,63.40
2018-11-25T12:42:57.574Z,63.40
2018-11-25T12:45:26.304Z,63.00
2018-11-25T12:47:55.569Z,62.60
2018-11-25T12:50:26.633Z,62.10
2018-11-25T12:52:56.258Z,62.00
2018-11-25T12:55:27.052Z,62.20
2018-11-25T12:57:56.847Z,62.60
2018-11-25T13:00:40.942Z,62.60
2018-11-25T13:03:14.469Z,61.50
2018-11-25T13:05:46.154Z,61.30
2018-11-25T13:08:13.519Z,61.10
2018-11-25T13:10:42.154Z,61.00
2018-11-25T13:13:11.710Z,61.40
2018-11-25T13:15:40.285Z,60.20
2018-11-25T13:18:11.257Z,60.70
2018-11-25T13:20:39.832Z,60.70
2018-11-25T13:23:08.684Z,60.80
2018-11-25T13:25:37.014Z,60.90
2018-11-25T13:28:11.973Z,60.90
2018-11-25T13:30:40.471Z,60.70
2018-11-25T13:33:09.401Z,60.50
2018-11-25T13:35:39.269Z,60.70
2018-11-25T13:38:08.407Z,61.00
2018-11-25T13:40:36.799Z,61.10
2018-11-25T13:43:07.861Z,61.20
2018-11-25T13:45:37.135Z,59.40
2018-11-25T13:48:06.401Z,59.20
2018-11-25T13:50:35.123Z,59.40
2018-11-25T13:53:03.715Z,59.50
2018-11-25T13:55:32.117Z,58.70
2018-11-25T13:58:00.525Z,58.70
2018-11-25T14:00:41.214Z,57.90
2018-11-25T14:03:14.935Z,59.10
2018-11-25T14:05:43.551Z,59.00
2018-11-25T14:08:12.098Z,59.30
2018-11-25T14:10:40.430Z,59.40
2018-11-25T14:13:09.138Z,59.50
2018-11-25T14:15:37.488Z,59.70
2018-11-25T14:18:06.974Z,60.00
2018-11-25T14:20:35.500Z,60.10
2018-11-25T14:23:04.043Z,60.50
2018-11-25T14:25:32.628Z,60.30
2018-11-25T14:28:08.474Z,60.60
2018-11-25T14:30:37.066Z,60.70
2018-11-25T14:33:06.346Z,61.00
2018-11-25T14:35:34.904Z,59.20
2018-11-25T14:38:03.276Z,56.00
2018-11-25T14:40:31.833Z,55.00
2018-11-25T14:43:00.558Z,55.10
2018-11-25T14:45:29.129Z,55.00
2018-11-25T14:47:57.597Z,55.00
2018-11-25T14:50:26.082Z,54.60
2018-11-25T14:52:54.519Z,55.00
2018-11-25T14:55:22.983Z,54.90
2018-11-25T14:57:51.342Z,54.40
2018-11-25T15:00:21.958Z,54.30
2018-11-25T15:02:58.761Z,54.80
2018-11-25T15:05:38.316Z,54.80
2018-11-25T15:08:08.789Z,54.70
2018-11-25T15:10:41.389Z,55.50
2018-11-25T15:13:10.243Z,56.10
2018-11-25T15:15:38.822Z,56.60
2018-11-25T15:18:08.521Z,57.20
2018-11-25T15:20:36.906Z,57.80
2018-11-25T15:23:09.103Z,58.30
2018-11-25T15:25:41.980Z,58.70
2018-11-25T15:28:10.409Z,59.20
2018-11-25T15:30:39.082Z,59.80
2018-11-25T15:33:07.775Z,60.60
2018-11-25T15:35:36.842Z,61.30
2018-11-25T15:38:06.187Z,62.20
2018-11-25T15:40:38.755Z,62.80
2018-11-25T15:43:09.821Z,62.80
2018-11-25T15:45:38.547Z,63.30
2018-11-25T15:48:26.928Z,63.80
2018-11-25T15:50:55.237Z,64.20
2018-11-25T15:53:24.006Z,65.10
2018-11-25T15:55:56.017Z,65.40
2018-11-25T15:58:24.585Z,65.90
2018-11-25T16:00:53.146Z,66.40
2018-11-25T16:03:21.698Z,66.80
2018-11-25T16:05:55.131Z,67.60
2018-11-25T16:08:23.758Z,68.10
2018-11-25T16:10:52.273Z,68.20
2018-11-25T16:13:22.670Z,69.00
2018-11-25T16:15:50.123Z,69.50
2018-11-25T16:18:19.000Z,69.70
2018-11-25T16:20:47.830Z,70.40
2018-11-25T16:23:16.306Z,70.70
2018-11-25T16:25:51.921Z,71.20
2018-11-25T16:28:30.935Z,72.10
2018-11-25T16:30:59.591Z,72.60
2018-11-25T16:33:28.153Z,73.30
2018-11-25T16:35:57.018Z,74.40
2018-11-25T16:38:26.126Z,74.70
2018-11-25T16:40:54.868Z,75.20
2018-11-25T16:43:23.614Z,75.80
2018-11-25T16:45:52.603Z,75.80
2018-11-25T16:48:21.880Z,75.90
2018-11-25T16:50:50.614Z,76.10
2018-11-25T16:53:19.844Z,76.20
2018-11-25T16:55:48.336Z,76.50
2018-11-25T16:58:17.064Z,77.30
2018-11-25T17:00:45.722Z,77.80
2018-11-25T17:03:14.288Z,78.00
2018-11-25T17:05:45.700Z,77.90
2018-11-25T17:08:33.265Z,77.80
2018-11-25T17:11:01.947Z,77.20
2018-11-25T17:13:30.458Z,76.60
2018-11-25T17:16:00.651Z,75.40
2018-11-25T17:18:29.239Z,75.00
2018-11-25T17:20:57.953Z,75.00
2018-11-25T17:23:26.413Z,75.00
2018-11-25T17:25:55.723Z,74.50
2018-11-25T17:28:24.511Z,74.10
2018-11-25T17:30:53.370Z,74.50
2018-11-25T17:33:25.932Z,74.70
2018-11-25T17:35:54.649Z,74.50
2018-11-25T17:38:24.876Z,74.50
2018-11-25T17:40:52.182Z,74.50
2018-11-25T17:43:23.276Z,74.50
2018-11-25T17:45:51.963Z,74.60
2018-11-25T17:48:20.537Z,74.20
2018-11-25T17:53:34.681Z,74.10
2018-11-25T17:56:03.224Z,73.60
2018-11-25T17:58:31.819Z,73.30
2018-11-25T18:01:02.753Z,73.70
2018-11-25T18:03:33.395Z,74.00
2018-11-25T18:06:02.342Z,73.80
2018-11-25T18:08:31.018Z,74.00
2018-11-25T18:10:59.477Z,74.20
2018-11-25T18:13:34.437Z,74.30
2018-11-25T18:16:06.783Z,75.10
2018-11-25T18:18:49.645Z,75.40
2018-11-25T18:21:24.662Z,76.00
2018-11-25T18:23:53.670Z,76.30
2018-11-25T18:26:22.090Z,76.40
2018-11-25T18:28:50.567Z,76.60
2018-11-25T18:31:18.997Z,76.20
2018-11-25T18:33:47.857Z,75.80
2018-11-25T18:36:16.592Z,76.00
2018-11-25T18:38:45.397Z,75.80
2018-11-25T18:41:14.450Z,76.00
2018-11-25T18:43:43.274Z,75.80
2018-11-25T18:46:11.863Z,75.70
2018-11-25T18:48:45.705Z,75.50
2018-11-25T18:51:14.215Z,75.90
2018-11-25T18:53:43.125Z,76.30
2018-11-25T18:56:14.190Z,76.00
2018-11-25T18:58:43.173Z,75.90
2018-11-25T19:01:30.866Z,75.70
2018-11-25T19:04:01.389Z,75.90
2018-11-25T19:06:30.597Z,76.30
2018-11-25T19:08:59.603Z,76.40
2018-11-25T19:11:28.951Z,76.20
2018-11-25T19:13:58.317Z,76.00
2018-11-25T19:16:27.475Z,76.20
2018-11-25T19:18:57.159Z,75.90
2018-11-25T19:21:28.811Z,75.90
2018-11-25T19:23:59.068Z,75.30
2018-11-25T19:26:34.918Z,75.00
2018-11-25T19:29:07.135Z,75.30
2018-11-25T19:31:41.756Z,74.90
2018-11-25T19:34:14.055Z,74.90
2018-11-25T19:39:37.035Z,75.00
2018-11-25T19:45:02.186Z,75.10
2018-11-25T19:53:29.912Z,74.70
2018-11-25T19:56:00.481Z,74.20
2018-11-25T19:58:32.266Z,74.50
2018-11-25T20:01:02.948Z,74.60
2018-11-25T20:03:33.083Z,74.90
2018-11-25T20:06:02.168Z,75.10
2018-11-25T20:08:47.211Z,74.80
2018-11-25T20:11:16.723Z,74.60
2018-11-25T20:13:45.965Z,74.10
2018-11-25T20:16:20.345Z,73.90
2018-11-25T20:18:55.801Z,73.60
2018-11-25T20:21:37.413Z,73.40
2018-11-25T20:24:09.730Z,73.70
2018-11-25T20:26:44.691Z,73.40
2018-11-25T20:29:14.439Z,73.70
2018-11-25T20:31:43.945Z,73.80
2018-11-25T20:34:13.395Z,73.70
2018-11-25T20:36:55.016Z,73.90
2018-11-25T20:39:46.380Z,73.40
2018-11-25T20:42:21.120Z,73.10
2018-11-25T20:44:59.209Z,73.30
2018-11-25T20:47:38.289Z,73.00
2018-11-25T20:53:20.801Z,73.60
2018-11-25T20:58:46.311Z,72.20
2018-11-25T21:04:45.073Z,71.90
2018-11-25T21:23:17.389Z,72.80
2018-11-25T21:25:58.554Z,73.20
2018-11-25T21:28:46.161Z,73.20
2018-11-25T21:31:16.850Z,73.30
2018-11-25T21:33:47.411Z,73.20
2018-11-25T21:36:37.065Z,73.60
2018-11-25T21:39:16.648Z,73.40
2018-11-25T21:41:46.725Z,73.50
2018-11-25T21:44:16.891Z,73.80
2018-11-25T21:46:48.427Z,73.60
2018-11-25T21:49:18.261Z,73.00
2018-11-25T21:51:47.755Z,72.90
2018-11-25T21:54:17.066Z,72.90
2018-11-25T21:56:48.034Z,72.40
2018-11-25T21:59:17.595Z,72.50
2018-11-25T22:01:49.051Z,73.00
2018-11-25T22:04:17.827Z,72.50
2018-11-25T22:06:46.279Z,72.90
2018-11-25T22:09:15.409Z,73.60
2018-11-25T22:11:44.937Z,74.50
2018-11-25T22:14:19.963Z,74.90
2018-11-25T22:16:50.195Z,75.50
2018-11-25T22:19:19.417Z,75.80
2018-11-25T22:21:48.472Z,76.40
2018-11-25T22:24:17.423Z,76.70
2018-11-25T22:26:46.163Z,77.30
2018-11-25T22:29:14.931Z,77.80
2018-11-25T22:31:43.660Z,77.90
2018-11-25T22:34:12.212Z,78.10
2018-11-25T22:36:41.404Z,78.10
2018-11-25T22:39:10.301Z,77.90
2018-11-25T22:41:39.061Z,78.00
2018-11-25T22:44:08.034Z,78.20
2018-11-25T22:46:36.878Z,78.10
2018-11-25T22:49:06.554Z,78.10
2018-11-25T22:51:35.137Z,78.20
2018-11-25T22:54:03.687Z,78.00
2018-11-25T22:56:32.284Z,77.80
2018-11-25T22:59:01.474Z,77.50
2018-11-25T23:01:30.245Z,77.50
2018-11-25T23:04:15.585Z,77.60
2018-11-25T23:06:57.863Z,78.20
2018-11-25T23:09:26.269Z,78.20
2018-11-25T23:11:54.857Z,78.00
2018-11-25T23:14:23.404Z,78.10
2018-11-25T23:16:52.145Z,77.80
2018-11-25T23:19:20.709Z,77.20
2018-11-25T23:21:49.398Z,78.00
2018-11-25T23:24:18.073Z,78.00
2018-11-25T23:26:46.631Z,78.30
2018-11-25T23:29:15.171Z,78.80
2018-11-25T23:31:43.696Z,79.20
2018-11-25T23:34:12.084Z,79.20
2018-11-25T23:36:41.096Z,80.00
2018-11-25T23:39:10.068Z,80.50
2018-11-25T23:41:38.636Z,80.80
2018-11-25T23:44:07.746Z,81.00
2018-11-25T23:46:36.573Z,80.90
2018-11-25T23:49:05.283Z,80.90
2018-11-25T23:51:34.184Z,80.70
2018-11-25T23:54:02.636Z,80.90
2018-11-25T23:56:31.224Z,81.00
2018-11-25T23:58:59.673Z,80.60
